sensor_id;sensor_type;location;lat;lon;timestamp;P1;durP1;ratioP1;P2;durP2;ratioP2
21030;SDS011;61072;47.808;7.636;2023-12-04T00:02:01;17.98;;;8.88;;
21030;SDS011;61072;47.808;7.636;2023-12-04T00:04:28;17.52;;;8.52;;
21030;SDS011;61072;47.808;7.636;2023-12-04T00:06:55;18.83;;;8.75;;
21030;SDS011;61072;47.808;7.636;2023-12-04T00:09:22;16.25;;;8.07;;
21030;SDS011;61072;47.808;7.636;2023-12-04T00:11:51;14.88;;;7.72;;
21030;SDS011;61072;47.808;7.636;2023-12-04T00:14:18;15.75;;;7.38;;
21030;SDS011;61072;47.808;7.636;2023-12-04T00:16:45;15.60;;;7.55;;
21030;SDS011;61072;47.808;7.636;2023-12-04T00:19:12;14.18;;;6.90;;
21030;SDS011;61072;47.808;7.636;2023-12-04T00:21:39;13.20;;;7.00;;
21030;SDS011;61072;47.808;7.636;2023-12-04T00:24:05;12.55;;;6.97;;
21030;SDS011;61072;47.808;7.636;2023-12-04T00:26:32;11.50;;;7.47;;
21030;SDS011;61072;47.808;7.636;2023-12-04T00:28:59;13.90;;;6.35;;
21030;SDS011;61072;47.808;7.636;2023-12-04T00:31:25;11.48;;;6.68;;
21030;SDS011;61072;47.808;7.636;2023-12-04T00:33:52;10.07;;;6.15;;
21030;SDS011;61072;47.808;7.636;2023-12-04T00:36:19;11.70;;;7.07;;
21030;SDS011;61072;47.808;7.636;2023-12-04T00:38:46;16.45;;;7.35;;
21030;SDS011;61072;47.808;7.636;2023-12-04T00:41:13;13.32;;;7.03;;
21030;SDS011;61072;47.808;7.636;2023-12-04T00:43:41;13.27;;;6.93;;
21030;SDS011;61072;47.808;7.636;2023-12-04T00:46:08;14.52;;;6.97;;
21030;SDS011;61072;47.808;7.636;2023-12-04T00:48:35;11.48;;;7.03;;
21030;SDS011;61072;47.808;7.636;2023-12-04T00:51:02;12.45;;;7.35;;
21030;SDS011;61072;47.808;7.636;2023-12-04T00:53:28;14.93;;;6.97;;
21030;SDS011;61072;47.808;7.636;2023-12-04T00:55:55;11.93;;;6.57;;
21030;SDS011;61072;47.808;7.636;2023-12-04T00:58:22;14.88;;;7.30;;
21030;SDS011;61072;47.808;7.636;2023-12-04T01:00:49;12.15;;;6.18;;
21030;SDS011;61072;47.808;7.636;2023-12-04T01:03:18;11.27;;;6.80;;
21030;SDS011;61072;47.808;7.636;2023-12-04T01:05:44;11.77;;;6.30;;
21030;SDS011;61072;47.808;7.636;2023-12-04T01:08:11;11.10;;;6.15;;
21030;SDS011;61072;47.808;7.636;2023-12-04T01:10:38;13.00;;;6.60;;
21030;SDS011;61072;47.808;7.636;2023-12-04T01:13:05;12.30;;;6.53;;
21030;SDS011;61072;47.808;7.636;2023-12-04T01:15:32;9.30;;;5.63;;
21030;SDS011;61072;47.808;7.636;2023-12-04T01:17:59;10.60;;;6.45;;
21030;SDS011;61072;47.808;7.636;2023-12-04T01:20:27;16.02;;;7.50;;
21030;SDS011;61072;47.808;7.636;2023-12-04T01:22:53;15.00;;;7.25;;
21030;SDS011;61072;47.808;7.636;2023-12-04T01:25:20;14.35;;;7.20;;
21030;SDS011;61072;47.808;7.636;2023-12-04T01:27:47;13.60;;;7.38;;
21030;SDS011;61072;47.808;7.636;2023-12-04T01:30:14;13.05;;;7.30;;
21030;SDS011;61072;47.808;7.636;2023-12-04T01:32:40;11.20;;;6.50;;
21030;SDS011;61072;47.808;7.636;2023-12-04T01:35:07;12.80;;;7.43;;
21030;SDS011;61072;47.808;7.636;2023-12-04T01:37:34;14.45;;;7.35;;
21030;SDS011;61072;47.808;7.636;2023-12-04T01:40:03;11.70;;;6.80;;
21030;SDS011;61072;47.808;7.636;2023-12-04T01:42:32;12.13;;;6.78;;
21030;SDS011;61072;47.808;7.636;2023-12-04T01:44:59;10.95;;;6.50;;
21030;SDS011;61072;47.808;7.636;2023-12-04T01:47:26;14.23;;;7.65;;
21030;SDS011;61072;47.808;7.636;2023-12-04T01:49:53;14.27;;;7.38;;
21030;SDS011;61072;47.808;7.636;2023-12-04T01:52:20;12.52;;;7.35;;
21030;SDS011;61072;47.808;7.636;2023-12-04T01:54:47;16.48;;;8.05;;
21030;SDS011;61072;47.808;7.636;2023-12-04T01:57:14;13.18;;;7.22;;
21030;SDS011;61072;47.808;7.636;2023-12-04T01:59:42;10.30;;;6.70;;
21030;SDS011;61072;47.808;7.636;2023-12-04T02:02:09;12.70;;;6.75;;
21030;SDS011;61072;47.808;7.636;2023-12-04T02:04:36;11.40;;;6.38;;
21030;SDS011;61072;47.808;7.636;2023-12-04T02:07:03;10.23;;;6.15;;
21030;SDS011;61072;47.808;7.636;2023-12-04T02:09:30;10.63;;;6.75;;
21030;SDS011;61072;47.808;7.636;2023-12-04T02:11:58;12.38;;;7.18;;
21030;SDS011;61072;47.808;7.636;2023-12-04T02:14:25;12.55;;;6.00;;
21030;SDS011;61072;47.808;7.636;2023-12-04T02:16:52;10.80;;;6.40;;
21030;SDS011;61072;47.808;7.636;2023-12-04T02:19:22;13.32;;;6.97;;
21030;SDS011;61072;47.808;7.636;2023-12-04T02:21:49;13.27;;;7.40;;
21030;SDS011;61072;47.808;7.636;2023-12-04T02:24:16;13.40;;;6.75;;
21030;SDS011;61072;47.808;7.636;2023-12-04T02:26:45;12.88;;;7.45;;
21030;SDS011;61072;47.808;7.636;2023-12-04T02:29:19;11.98;;;6.93;;
21030;SDS011;61072;47.808;7.636;2023-12-04T02:31:50;11.90;;;7.07;;
21030;SDS011;61072;47.808;7.636;2023-12-04T02:34:19;14.07;;;7.25;;
21030;SDS011;61072;47.808;7.636;2023-12-04T02:36:47;13.48;;;7.40;;
21030;SDS011;61072;47.808;7.636;2023-12-04T02:39:15;10.93;;;6.80;;
21030;SDS011;61072;47.808;7.636;2023-12-04T02:41:42;9.88;;;6.13;;
21030;SDS011;61072;47.808;7.636;2023-12-04T02:44:09;9.60;;;5.75;;
21030;SDS011;61072;47.808;7.636;2023-12-04T02:46:35;10.88;;;5.55;;
21030;SDS011;61072;47.808;7.636;2023-12-04T02:49:02;11.20;;;6.30;;
21030;SDS011;61072;47.808;7.636;2023-12-04T02:51:29;9.35;;;5.90;;
21030;SDS011;61072;47.808;7.636;2023-12-04T02:53:55;11.45;;;6.30;;
21030;SDS011;61072;47.808;7.636;2023-12-04T02:56:22;9.07;;;5.45;;
21030;SDS011;61072;47.808;7.636;2023-12-04T02:58:49;12.27;;;6.70;;
21030;SDS011;61072;47.808;7.636;2023-12-04T03:01:15;12.90;;;6.47;;
21030;SDS011;61072;47.808;7.636;2023-12-04T03:03:42;12.63;;;6.93;;
21030;SDS011;61072;47.808;7.636;2023-12-04T03:06:09;11.77;;;6.78;;
21030;SDS011;61072;47.808;7.636;2023-12-04T03:08:36;10.18;;;6.72;;
21030;SDS011;61072;47.808;7.636;2023-12-04T03:11:03;12.88;;;6.63;;
21030;SDS011;61072;47.808;7.636;2023-12-04T03:13:29;14.30;;;7.15;;
21030;SDS011;61072;47.808;7.636;2023-12-04T03:15:56;12.65;;;6.82;;
21030;SDS011;61072;47.808;7.636;2023-12-04T03:18:23;12.05;;;6.75;;
21030;SDS011;61072;47.808;7.636;2023-12-04T03:20:52;10.27;;;6.28;;
21030;SDS011;61072;47.808;7.636;2023-12-04T03:23:19;15.27;;;7.53;;
21030;SDS011;61072;47.808;7.636;2023-12-04T03:25:46;10.10;;;6.95;;
21030;SDS011;61072;47.808;7.636;2023-12-04T03:28:13;11.00;;;6.75;;
21030;SDS011;61072;47.808;7.636;2023-12-04T03:30:41;11.02;;;6.57;;
21030;SDS011;61072;47.808;7.636;2023-12-04T03:33:12;11.52;;;6.95;;
21030;SDS011;61072;47.808;7.636;2023-12-04T03:35:39;12.77;;;7.57;;
21030;SDS011;61072;47.808;7.636;2023-12-04T03:38:05;13.88;;;7.53;;
21030;SDS011;61072;47.808;7.636;2023-12-04T03:40:32;14.20;;;7.82;;
21030;SDS011;61072;47.808;7.636;2023-12-04T03:42:59;14.52;;;7.22;;
21030;SDS011;61072;47.808;7.636;2023-12-04T03:45:26;13.43;;;7.55;;
21030;SDS011;61072;47.808;7.636;2023-12-04T03:47:53;14.40;;;8.05;;
21030;SDS011;61072;47.808;7.636;2023-12-04T03:50:19;15.52;;;8.85;;
21030;SDS011;61072;47.808;7.636;2023-12-04T03:52:46;12.70;;;8.07;;
21030;SDS011;61072;47.808;7.636;2023-12-04T03:55:13;15.98;;;8.50;;
21030;SDS011;61072;47.808;7.636;2023-12-04T03:57:40;14.80;;;8.23;;
21030;SDS011;61072;47.808;7.636;2023-12-04T04:00:09;14.63;;;8.30;;
21030;SDS011;61072;47.808;7.636;2023-12-04T04:02:36;12.43;;;7.50;;
21030;SDS011;61072;47.808;7.636;2023-12-04T04:05:04;17.00;;;8.55;;
21030;SDS011;61072;47.808;7.636;2023-12-04T04:07:30;15.90;;;7.85;;
21030;SDS011;61072;47.808;7.636;2023-12-04T04:09:57;13.27;;;8.00;;
21030;SDS011;61072;47.808;7.636;2023-12-04T04:12:24;13.88;;;7.97;;
21030;SDS011;61072;47.808;7.636;2023-12-04T04:14:51;13.85;;;8.00;;
21030;SDS011;61072;47.808;7.636;2023-12-04T04:17:17;18.45;;;8.88;;
21030;SDS011;61072;47.808;7.636;2023-12-04T04:19:44;15.00;;;8.57;;
21030;SDS011;61072;47.808;7.636;2023-12-04T04:22:11;16.52;;;9.30;;
21030;SDS011;61072;47.808;7.636;2023-12-04T04:24:38;16.83;;;8.52;;
21030;SDS011;61072;47.808;7.636;2023-12-04T04:27:05;15.32;;;8.70;;
21030;SDS011;61072;47.808;7.636;2023-12-04T04:29:31;22.00;;;10.07;;
21030;SDS011;61072;47.808;7.636;2023-12-04T04:31:58;21.45;;;10.98;;
21030;SDS011;61072;47.808;7.636;2023-12-04T04:34:25;16.63;;;9.75;;
21030;SDS011;61072;47.808;7.636;2023-12-04T04:36:52;18.70;;;10.63;;
21030;SDS011;61072;47.808;7.636;2023-12-04T04:39:19;18.17;;;9.30;;
21030;SDS011;61072;47.808;7.636;2023-12-04T04:41:46;23.05;;;11.85;;
21030;SDS011;61072;47.808;7.636;2023-12-04T04:44:13;20.98;;;11.45;;
21030;SDS011;61072;47.808;7.636;2023-12-04T04:46:39;19.63;;;10.05;;
21030;SDS011;61072;47.808;7.636;2023-12-04T04:49:06;18.30;;;10.32;;
21030;SDS011;61072;47.808;7.636;2023-12-04T04:51:33;18.33;;;10.00;;
21030;SDS011;61072;47.808;7.636;2023-12-04T04:54:01;20.05;;;11.32;;
21030;SDS011;61072;47.808;7.636;2023-12-04T04:56:28;17.30;;;9.75;;
21030;SDS011;61072;47.808;7.636;2023-12-04T04:58:56;24.90;;;11.70;;
21030;SDS011;61072;47.808;7.636;2023-12-04T05:01:23;19.25;;;10.60;;
21030;SDS011;61072;47.808;7.636;2023-12-04T05:03:50;17.02;;;9.98;;
21030;SDS011;61072;47.808;7.636;2023-12-04T05:06:17;18.48;;;10.02;;
21030;SDS011;61072;47.808;7.636;2023-12-04T05:08:44;20.23;;;10.18;;
21030;SDS011;61072;47.808;7.636;2023-12-04T05:11:14;17.85;;;10.95;;
21030;SDS011;61072;47.808;7.636;2023-12-04T05:13:41;17.45;;;11.18;;
21030;SDS011;61072;47.808;7.636;2023-12-04T05:16:07;20.65;;;10.73;;
21030;SDS011;61072;47.808;7.636;2023-12-04T05:18:35;20.63;;;11.60;;
21030;SDS011;61072;47.808;7.636;2023-12-04T05:21:01;19.25;;;10.30;;
21030;SDS011;61072;47.808;7.636;2023-12-04T05:23:29;18.58;;;11.68;;
21030;SDS011;61072;47.808;7.636;2023-12-04T05:25:55;19.00;;;11.38;;
21030;SDS011;61072;47.808;7.636;2023-12-04T05:28:22;22.77;;;13.07;;
21030;SDS011;61072;47.808;7.636;2023-12-04T05:30:49;23.52;;;12.52;;
21030;SDS011;61072;47.808;7.636;2023-12-04T05:33:16;24.38;;;13.00;;
21030;SDS011;61072;47.808;7.636;2023-12-04T05:35:43;38.80;;;16.98;;
21030;SDS011;61072;47.808;7.636;2023-12-04T05:38:09;50.10;;;24.20;;
21030;SDS011;61072;47.808;7.636;2023-12-04T05:40:36;43.80;;;21.20;;
21030;SDS011;61072;47.808;7.636;2023-12-04T05:43:03;44.15;;;21.65;;
21030;SDS011;61072;47.808;7.636;2023-12-04T05:45:30;41.42;;;20.83;;
21030;SDS011;61072;47.808;7.636;2023-12-04T05:47:56;34.53;;;17.48;;
21030;SDS011;61072;47.808;7.636;2023-12-04T05:50:23;26.70;;;14.82;;
21030;SDS011;61072;47.808;7.636;2023-12-04T05:52:50;25.50;;;13.95;;
21030;SDS011;61072;47.808;7.636;2023-12-04T05:55:17;35.75;;;18.23;;
21030;SDS011;61072;47.808;7.636;2023-12-04T05:57:44;54.97;;;27.77;;
21030;SDS011;61072;47.808;7.636;2023-12-04T06:00:11;36.85;;;20.30;;
21030;SDS011;61072;47.808;7.636;2023-12-04T06:02:39;33.50;;;18.90;;
21030;SDS011;61072;47.808;7.636;2023-12-04T06:05:07;28.58;;;16.50;;
21030;SDS011;61072;47.808;7.636;2023-12-04T06:07:34;34.20;;;17.33;;
21030;SDS011;61072;47.808;7.636;2023-12-04T06:10:04;27.92;;;15.82;;
21030;SDS011;61072;47.808;7.636;2023-12-04T06:12:32;27.25;;;14.57;;
21030;SDS011;61072;47.808;7.636;2023-12-04T06:14:59;23.25;;;12.52;;
21030;SDS011;61072;47.808;7.636;2023-12-04T06:17:26;22.13;;;12.18;;
21030;SDS011;61072;47.808;7.636;2023-12-04T06:19:53;21.10;;;12.75;;
21030;SDS011;61072;47.808;7.636;2023-12-04T06:22:20;23.00;;;12.90;;
21030;SDS011;61072;47.808;7.636;2023-12-04T06:24:48;25.55;;;14.48;;
21030;SDS011;61072;47.808;7.636;2023-12-04T06:27:15;26.58;;;15.93;;
21030;SDS011;61072;47.808;7.636;2023-12-04T06:29:46;23.13;;;14.02;;
21030;SDS011;61072;47.808;7.636;2023-12-04T06:32:18;22.67;;;13.98;;
21030;SDS011;61072;47.808;7.636;2023-12-04T06:34:45;26.33;;;14.45;;
21030;SDS011;61072;47.808;7.636;2023-12-04T06:37:13;26.15;;;14.60;;
21030;SDS011;61072;47.808;7.636;2023-12-04T06:39:40;25.77;;;13.82;;
21030;SDS011;61072;47.808;7.636;2023-12-04T06:42:08;26.27;;;15.40;;
21030;SDS011;61072;47.808;7.636;2023-12-04T06:44:36;22.95;;;13.02;;
21030;SDS011;61072;47.808;7.636;2023-12-04T06:47:03;21.67;;;12.43;;
21030;SDS011;61072;47.808;7.636;2023-12-04T06:49:31;22.67;;;13.82;;
21030;SDS011;61072;47.808;7.636;2023-12-04T06:51:59;27.73;;;15.50;;
21030;SDS011;61072;47.808;7.636;2023-12-04T06:54:26;28.65;;;15.95;;
21030;SDS011;61072;47.808;7.636;2023-12-04T06:56:53;25.38;;;15.65;;
21030;SDS011;61072;47.808;7.636;2023-12-04T06:59:20;28.88;;;16.23;;
21030;SDS011;61072;47.808;7.636;2023-12-04T07:01:47;27.52;;;16.30;;
21030;SDS011;61072;47.808;7.636;2023-12-04T07:04:15;26.48;;;15.15;;
21030;SDS011;61072;47.808;7.636;2023-12-04T07:06:47;33.15;;;21.33;;
21030;SDS011;61072;47.808;7.636;2023-12-04T07:09:15;28.98;;;18.65;;
21030;SDS011;61072;47.808;7.636;2023-12-04T07:11:43;31.58;;;18.33;;
21030;SDS011;61072;47.808;7.636;2023-12-04T07:14:10;29.48;;;16.90;;
21030;SDS011;61072;47.808;7.636;2023-12-04T07:16:46;26.48;;;16.45;;
21030;SDS011;61072;47.808;7.636;2023-12-04T07:19:16;30.38;;;17.75;;
21030;SDS011;61072;47.808;7.636;2023-12-04T07:21:43;28.90;;;16.92;;
21030;SDS011;61072;47.808;7.636;2023-12-04T07:24:10;29.65;;;15.68;;
21030;SDS011;61072;47.808;7.636;2023-12-04T07:26:36;28.92;;;17.15;;
21030;SDS011;61072;47.808;7.636;2023-12-04T07:29:04;33.67;;;20.30;;
21030;SDS011;61072;47.808;7.636;2023-12-04T07:31:31;29.67;;;18.58;;
21030;SDS011;61072;47.808;7.636;2023-12-04T07:33:58;32.08;;;17.85;;
21030;SDS011;61072;47.808;7.636;2023-12-04T07:36:26;28.55;;;16.80;;
21030;SDS011;61072;47.808;7.636;2023-12-04T07:38:54;26.90;;;16.92;;
21030;SDS011;61072;47.808;7.636;2023-12-04T07:41:20;27.83;;;17.80;;
21030;SDS011;61072;47.808;7.636;2023-12-04T07:43:48;28.60;;;16.58;;
21030;SDS011;61072;47.808;7.636;2023-12-04T07:46:15;28.63;;;16.70;;
21030;SDS011;61072;47.808;7.636;2023-12-04T07:48:42;31.52;;;18.60;;
21030;SDS011;61072;47.808;7.636;2023-12-04T07:51:10;29.92;;;18.92;;
21030;SDS011;61072;47.808;7.636;2023-12-04T07:53:37;32.38;;;18.98;;
21030;SDS011;61072;47.808;7.636;2023-12-04T07:56:04;34.53;;;20.45;;
21030;SDS011;61072;47.808;7.636;2023-12-04T07:58:31;32.28;;;20.23;;
21030;SDS011;61072;47.808;7.636;2023-12-04T08:00:58;27.33;;;18.52;;
21030;SDS011;61072;47.808;7.636;2023-12-04T08:03:25;27.55;;;16.75;;
21030;SDS011;61072;47.808;7.636;2023-12-04T08:05:53;27.85;;;16.27;;
21030;SDS011;61072;47.808;7.636;2023-12-04T08:08:20;30.58;;;17.88;;
21030;SDS011;61072;47.808;7.636;2023-12-04T08:10:47;33.38;;;18.50;;
21030;SDS011;61072;47.808;7.636;2023-12-04T08:13:14;27.25;;;16.35;;
21030;SDS011;61072;47.808;7.636;2023-12-04T08:15:42;29.50;;;17.75;;
21030;SDS011;61072;47.808;7.636;2023-12-04T08:18:12;30.88;;;17.08;;
21030;SDS011;61072;47.808;7.636;2023-12-04T08:20:39;27.20;;;17.05;;
21030;SDS011;61072;47.808;7.636;2023-12-04T08:23:07;29.45;;;16.83;;
21030;SDS011;61072;47.808;7.636;2023-12-04T08:25:34;26.77;;;16.17;;
21030;SDS011;61072;47.808;7.636;2023-12-04T08:28:05;23.13;;;13.63;;
21030;SDS011;61072;47.808;7.636;2023-12-04T08:30:32;26.77;;;14.13;;
21030;SDS011;61072;47.808;7.636;2023-12-04T08:32:59;27.65;;;14.57;;
21030;SDS011;61072;47.808;7.636;2023-12-04T08:35:26;22.00;;;13.82;;
21030;SDS011;61072;47.808;7.636;2023-12-04T08:37:53;21.27;;;13.18;;
21030;SDS011;61072;47.808;7.636;2023-12-04T08:40:20;21.45;;;12.70;;
21030;SDS011;61072;47.808;7.636;2023-12-04T08:42:47;20.17;;;11.38;;
21030;SDS011;61072;47.808;7.636;2023-12-04T08:45:13;19.73;;;12.43;;
21030;SDS011;61072;47.808;7.636;2023-12-04T08:47:42;22.52;;;12.57;;
21030;SDS011;61072;47.808;7.636;2023-12-04T08:50:10;30.60;;;18.75;;
21030;SDS011;61072;47.808;7.636;2023-12-04T08:52:37;33.42;;;22.77;;
21030;SDS011;61072;47.808;7.636;2023-12-04T08:57:34;28.13;;;15.48;;
21030;SDS011;61072;47.808;7.636;2023-12-04T09:00:01;27.13;;;16.38;;
21030;SDS011;61072;47.808;7.636;2023-12-04T09:02:29;28.20;;;15.57;;
21030;SDS011;61072;47.808;7.636;2023-12-04T09:04:57;28.75;;;16.80;;
21030;SDS011;61072;47.808;7.636;2023-12-04T09:07:25;25.67;;;15.88;;
21030;SDS011;61072;47.808;7.636;2023-12-04T09:10:11;26.58;;;15.07;;
21030;SDS011;61072;47.808;7.636;2023-12-04T09:12:55;28.35;;;16.55;;
21030;SDS011;61072;47.808;7.636;2023-12-04T09:15:22;28.80;;;16.58;;
21030;SDS011;61072;47.808;7.636;2023-12-04T09:17:49;24.98;;;15.65;;
21030;SDS011;61072;47.808;7.636;2023-12-04T09:20:16;27.58;;;15.90;;
21030;SDS011;61072;47.808;7.636;2023-12-04T09:22:43;34.72;;;17.10;;
21030;SDS011;61072;47.808;7.636;2023-12-04T09:25:18;30.90;;;17.33;;
21030;SDS011;61072;47.808;7.636;2023-12-04T09:27:45;30.67;;;17.92;;
21030;SDS011;61072;47.808;7.636;2023-12-04T09:30:12;29.35;;;19.00;;
21030;SDS011;61072;47.808;7.636;2023-12-04T09:32:40;29.90;;;18.42;;
21030;SDS011;61072;47.808;7.636;2023-12-04T09:35:07;23.88;;;17.10;;
21030;SDS011;61072;47.808;7.636;2023-12-04T09:37:33;27.35;;;17.10;;
21030;SDS011;61072;47.808;7.636;2023-12-04T09:40:01;26.98;;;17.40;;
21030;SDS011;61072;47.808;7.636;2023-12-04T09:42:28;30.50;;;17.25;;
21030;SDS011;61072;47.808;7.636;2023-12-04T09:44:56;29.70;;;16.73;;
21030;SDS011;61072;47.808;7.636;2023-12-04T09:47:25;31.85;;;17.55;;
21030;SDS011;61072;47.808;7.636;2023-12-04T09:49:52;30.00;;;16.33;;
21030;SDS011;61072;47.808;7.636;2023-12-04T09:52:21;29.25;;;16.88;;
21030;SDS011;61072;47.808;7.636;2023-12-04T09:54:50;26.10;;;16.13;;
21030;SDS011;61072;47.808;7.636;2023-12-04T09:57:17;27.52;;;17.58;;
21030;SDS011;61072;47.808;7.636;2023-12-04T09:59:44;41.05;;;20.45;;
21030;SDS011;61072;47.808;7.636;2023-12-04T10:02:11;41.70;;;21.38;;
21030;SDS011;61072;47.808;7.636;2023-12-04T10:04:39;46.17;;;22.63;;
21030;SDS011;61072;47.808;7.636;2023-12-04T10:07:07;43.67;;;23.27;;
21030;SDS011;61072;47.808;7.636;2023-12-04T10:09:34;46.15;;;22.20;;
21030;SDS011;61072;47.808;7.636;2023-12-04T10:12:01;41.25;;;21.45;;
21030;SDS011;61072;47.808;7.636;2023-12-04T10:14:28;38.22;;;19.52;;
21030;SDS011;61072;47.808;7.636;2023-12-04T10:16:54;39.28;;;20.40;;
21030;SDS011;61072;47.808;7.636;2023-12-04T10:19:22;36.65;;;17.85;;
21030;SDS011;61072;47.808;7.636;2023-12-04T10:21:54;12.23;;;7.88;;
21030;SDS011;61072;47.808;7.636;2023-12-04T10:26:56;8.85;;;4.32;;
21030;SDS011;61072;47.808;7.636;2023-12-04T10:29:25;4.50;;;2.60;;
21030;SDS011;61072;47.808;7.636;2023-12-04T10:31:54;4.47;;;2.47;;
21030;SDS011;61072;47.808;7.636;2023-12-04T10:34:22;7.55;;;2.33;;
21030;SDS011;61072;47.808;7.636;2023-12-04T10:36:52;2.78;;;1.98;;
21030;SDS011;61072;47.808;7.636;2023-12-04T10:39:20;4.50;;;2.05;;
21030;SDS011;61072;47.808;7.636;2023-12-04T10:41:49;2.20;;;1.70;;
21030;SDS011;61072;47.808;7.636;2023-12-04T10:44:26;1.23;;;1.13;;
21030;SDS011;61072;47.808;7.636;2023-12-04T10:46:53;2.22;;;1.73;;
21030;SDS011;61072;47.808;7.636;2023-12-04T10:49:25;2.67;;;1.13;;
21030;SDS011;61072;47.808;7.636;2023-12-04T10:51:57;1.58;;;1.10;;
21030;SDS011;61072;47.808;7.636;2023-12-04T10:54:27;1.77;;;1.30;;
21030;SDS011;61072;47.808;7.636;2023-12-04T10:56:56;1.10;;;1.00;;
21030;SDS011;61072;47.808;7.636;2023-12-04T10:59:32;0.80;;;0.80;;
21030;SDS011;61072;47.808;7.636;2023-12-04T11:02:02;1.73;;;1.15;;
21030;SDS011;61072;47.808;7.636;2023-12-04T11:04:32;1.33;;;1.05;;
21030;SDS011;61072;47.808;7.636;2023-12-04T11:07:02;2.08;;;1.00;;
21030;SDS011;61072;47.808;7.636;2023-12-04T11:09:34;1.35;;;1.10;;
21030;SDS011;61072;47.808;7.636;2023-12-04T11:12:02;1.35;;;1.00;;
21030;SDS011;61072;47.808;7.636;2023-12-04T11:14:34;1.17;;;0.90;;
21030;SDS011;61072;47.808;7.636;2023-12-04T11:17:08;2.30;;;1.08;;
21030;SDS011;61072;47.808;7.636;2023-12-04T11:22:22;1.33;;;1.05;;
21030;SDS011;61072;47.808;7.636;2023-12-04T11:24:51;3.63;;;1.13;;
21030;SDS011;61072;47.808;7.636;2023-12-04T11:27:19;2.42;;;0.90;;
21030;SDS011;61072;47.808;7.636;2023-12-04T11:29:47;1.67;;;0.85;;
21030;SDS011;61072;47.808;7.636;2023-12-04T11:32:15;2.30;;;1.08;;
21030;SDS011;61072;47.808;7.636;2023-12-04T11:34:49;1.50;;;1.40;;
21030;SDS011;61072;47.808;7.636;2023-12-04T11:37:19;3.85;;;1.60;;
21030;SDS011;61072;47.808;7.636;2023-12-04T11:39:47;1.95;;;1.20;;
21030;SDS011;61072;47.808;7.636;2023-12-04T11:42:19;1.70;;;1.58;;
21030;SDS011;61072;47.808;7.636;2023-12-04T11:44:48;3.58;;;1.80;;
21030;SDS011;61072;47.808;7.636;2023-12-04T11:47:16;4.90;;;1.25;;
21030;SDS011;61072;47.808;7.636;2023-12-04T11:49:43;1.27;;;1.17;;
21030;SDS011;61072;47.808;7.636;2023-12-04T11:52:11;1.85;;;1.13;;
21030;SDS011;61072;47.808;7.636;2023-12-04T11:57:34;1.23;;;1.08;;
21030;SDS011;61072;47.808;7.636;2023-12-04T12:02:47;1.63;;;1.02;;
21030;SDS011;61072;47.808;7.636;2023-12-04T12:05:47;1.48;;;1.00;;
21030;SDS011;61072;47.808;7.636;2023-12-04T12:08:16;1.47;;;0.80;;
21030;SDS011;61072;47.808;7.636;2023-12-04T12:10:43;1.15;;;0.80;;
21030;SDS011;61072;47.808;7.636;2023-12-04T12:13:11;1.13;;;1.00;;
21030;SDS011;61072;47.808;7.636;2023-12-04T12:15:39;2.47;;;1.33;;
21030;SDS011;61072;47.808;7.636;2023-12-04T12:18:05;1.10;;;0.70;;
21030;SDS011;61072;47.808;7.636;2023-12-04T12:20:35;1.13;;;1.00;;
21030;SDS011;61072;47.808;7.636;2023-12-04T12:23:03;2.88;;;1.00;;
21030;SDS011;61072;47.808;7.636;2023-12-04T12:25:29;1.90;;;1.20;;
21030;SDS011;61072;47.808;7.636;2023-12-04T12:27:56;3.80;;;1.00;;
21030;SDS011;61072;47.808;7.636;2023-12-04T12:30:24;2.13;;;0.90;;
21030;SDS011;61072;47.808;7.636;2023-12-04T12:32:50;2.58;;;2.20;;
21030;SDS011;61072;47.808;7.636;2023-12-04T12:35:18;3.08;;;2.05;;
21030;SDS011;61072;47.808;7.636;2023-12-04T12:37:45;1.80;;;1.13;;
21030;SDS011;61072;47.808;7.636;2023-12-04T12:40:12;1.02;;;0.93;;
21030;SDS011;61072;47.808;7.636;2023-12-04T12:42:40;1.35;;;0.90;;
21030;SDS011;61072;47.808;7.636;2023-12-04T12:45:11;1.02;;;0.80;;
21030;SDS011;61072;47.808;7.636;2023-12-04T12:47:42;3.10;;;1.40;;
21030;SDS011;61072;47.808;7.636;2023-12-04T12:50:10;1.15;;;0.80;;
21030;SDS011;61072;47.808;7.636;2023-12-04T12:52:37;0.73;;;0.70;;
21030;SDS011;61072;47.808;7.636;2023-12-04T12:55:04;1.02;;;0.90;;
21030;SDS011;61072;47.808;7.636;2023-12-04T12:57:31;1.00;;;0.80;;
21030;SDS011;61072;47.808;7.636;2023-12-04T12:59:58;1.08;;;0.60;;
21030;SDS011;61072;47.808;7.636;2023-12-04T13:02:25;2.42;;;0.80;;
21030;SDS011;61072;47.808;7.636;2023-12-04T13:04:52;4.68;;;2.00;;
21030;SDS011;61072;47.808;7.636;2023-12-04T13:07:19;1.00;;;0.80;;
21030;SDS011;61072;47.808;7.636;2023-12-04T13:09:47;0.93;;;0.90;;
21030;SDS011;61072;47.808;7.636;2023-12-04T13:12:14;1.50;;;0.80;;
21030;SDS011;61072;47.808;7.636;2023-12-04T13:14:41;0.80;;;0.75;;
21030;SDS011;61072;47.808;7.636;2023-12-04T13:17:07;1.23;;;1.10;;
21030;SDS011;61072;47.808;7.636;2023-12-04T13:19:36;1.52;;;0.95;;
21030;SDS011;61072;47.808;7.636;2023-12-04T13:22:03;2.70;;;1.10;;
21030;SDS011;61072;47.808;7.636;2023-12-04T13:24:31;0.70;;;0.70;;
21030;SDS011;61072;47.808;7.636;2023-12-04T13:26:58;0.73;;;0.73;;
21030;SDS011;61072;47.808;7.636;2023-12-04T13:29:24;0.57;;;0.50;;
21030;SDS011;61072;47.808;7.636;2023-12-04T13:31:51;2.70;;;0.80;;
21030;SDS011;61072;47.808;7.636;2023-12-04T13:34:19;2.83;;;0.90;;
21030;SDS011;61072;47.808;7.636;2023-12-04T13:36:46;0.90;;;0.80;;
21030;SDS011;61072;47.808;7.636;2023-12-04T13:39:12;1.27;;;0.80;;
21030;SDS011;61072;47.808;7.636;2023-12-04T13:41:46;0.77;;;0.70;;
21030;SDS011;61072;47.808;7.636;2023-12-04T13:44:31;0.85;;;0.77;;
21030;SDS011;61072;47.808;7.636;2023-12-04T13:46:59;1.10;;;0.80;;
21030;SDS011;61072;47.808;7.636;2023-12-04T13:49:26;0.80;;;0.80;;
21030;SDS011;61072;47.808;7.636;2023-12-04T13:51:53;1.23;;;0.57;;
21030;SDS011;61072;47.808;7.636;2023-12-04T13:54:21;2.78;;;0.82;;
21030;SDS011;61072;47.808;7.636;2023-12-04T13:56:58;0.80;;;0.70;;
21030;SDS011;61072;47.808;7.636;2023-12-04T13:59:26;2.70;;;0.88;;
21030;SDS011;61072;47.808;7.636;2023-12-04T14:01:53;0.70;;;0.70;;
21030;SDS011;61072;47.808;7.636;2023-12-04T14:04:26;1.35;;;0.88;;
21030;SDS011;61072;47.808;7.636;2023-12-04T14:06:54;1.30;;;0.60;;
21030;SDS011;61072;47.808;7.636;2023-12-04T14:09:25;2.45;;;1.10;;
21030;SDS011;61072;47.808;7.636;2023-12-04T14:11:52;1.40;;;0.73;;
21030;SDS011;61072;47.808;7.636;2023-12-04T14:14:19;0.65;;;0.60;;
21030;SDS011;61072;47.808;7.636;2023-12-04T14:16:45;1.65;;;0.63;;
21030;SDS011;61072;47.808;7.636;2023-12-04T14:19:13;1.02;;;0.75;;
21030;SDS011;61072;47.808;7.636;2023-12-04T14:21:43;1.58;;;0.70;;
21030;SDS011;61072;47.808;7.636;2023-12-04T14:24:10;3.17;;;0.98;;
21030;SDS011;61072;47.808;7.636;2023-12-04T14:26:36;0.90;;;0.77;;
21030;SDS011;61072;47.808;7.636;2023-12-04T14:29:03;0.70;;;0.70;;
21030;SDS011;61072;47.808;7.636;2023-12-04T14:31:30;0.80;;;0.80;;
21030;SDS011;61072;47.808;7.636;2023-12-04T14:33:57;1.23;;;0.90;;
21030;SDS011;61072;47.808;7.636;2023-12-04T14:36:24;0.93;;;0.77;;
21030;SDS011;61072;47.808;7.636;2023-12-04T14:38:53;2.85;;;1.20;;
21030;SDS011;61072;47.808;7.636;2023-12-04T14:41:19;0.93;;;0.80;;
21030;SDS011;61072;47.808;7.636;2023-12-04T14:43:46;1.42;;;1.00;;
21030;SDS011;61072;47.808;7.636;2023-12-04T14:46:13;1.40;;;1.00;;
21030;SDS011;61072;47.808;7.636;2023-12-04T14:48:40;2.45;;;1.13;;
21030;SDS011;61072;47.808;7.636;2023-12-04T14:51:07;1.17;;;0.90;;